sensor_id;sensor_type;location;lat;lon;timestamp;P1;durP1;ratioP1;P2;durP2;ratioP2
67191;SDS011;54120;53.504;49.426;2023-08-06T00:00:38;9.93;;;6.95;;
67191;SDS011;54120;53.504;49.426;2023-08-06T00:03:04;8.43;;;7.05;;
67191;SDS011;54120;53.504;49.426;2023-08-06T00:05:31;8.05;;;7.20;;
67191;SDS011;54120;53.504;49.426;2023-08-06T00:07:57;7.63;;;6.93;;
67191;SDS011;54120;53.504;49.426;2023-08-06T00:10:23;8.73;;;7.18;;
67191;SDS011;54120;53.504;49.426;2023-08-06T00:12:49;8.48;;;7.68;;
67191;SDS011;54120;53.504;49.426;2023-08-06T00:15:15;7.72;;;7.07;;
67191;SDS011;54120;53.504;49.426;2023-08-06T00:17:41;10.68;;;7.28;;
67191;SDS011;54120;53.504;49.426;2023-08-06T00:20:08;8.32;;;6.95;;
67191;SDS011;54120;53.504;49.426;2023-08-06T00:22:37;9.70;;;6.75;;
67191;SDS011;54120;53.504;49.426;2023-08-06T00:25:04;7.93;;;7.13;;
67191;SDS011;54120;53.504;49.426;2023-08-06T00:27:31;8.27;;;7.03;;
67191;SDS011;54120;53.504;49.426;2023-08-06T00:29:58;8.98;;;7.15;;
67191;SDS011;54120;53.504;49.426;2023-08-06T00:32:24;7.70;;;7.00;;
67191;SDS011;54120;53.504;49.426;2023-08-06T00:34:55;9.07;;;7.40;;
67191;SDS011;54120;53.504;49.426;2023-08-06T00:37:22;8.18;;;7.35;;
67191;SDS011;54120;53.504;49.426;2023-08-06T00:39:48;10.07;;;8.20;;
67191;SDS011;54120;53.504;49.426;2023-08-06T00:42:13;17.40;;;8.27;;
67191;SDS011;54120;53.504;49.426;2023-08-06T00:44:41;8.48;;;7.65;;
67191;SDS011;54120;53.504;49.426;2023-08-06T00:47:07;8.40;;;7.53;;
67191;SDS011;54120;53.504;49.426;2023-08-06T00:49:37;8.27;;;6.88;;
67191;SDS011;54120;53.504;49.426;2023-08-06T00:52:05;10.10;;;7.43;;
67191;SDS011;54120;53.504;49.426;2023-08-06T00:54:32;10.63;;;7.38;;
67191;SDS011;54120;53.504;49.426;2023-08-06T00:56:59;8.57;;;7.30;;
67191;SDS011;54120;53.504;49.426;2023-08-06T00:59:26;7.85;;;7.18;;
67191;SDS011;54120;53.504;49.426;2023-08-06T01:01:53;9.02;;;6.97;;
67191;SDS011;54120;53.504;49.426;2023-08-06T01:04:19;8.85;;;7.38;;
67191;SDS011;54120;53.504;49.426;2023-08-06T01:06:50;7.57;;;6.88;;
67191;SDS011;54120;53.504;49.426;2023-08-06T01:12:18;10.38;;;7.47;;
67191;SDS011;54120;53.504;49.426;2023-08-06T01:17:50;24.85;;;8.38;;
67191;SDS011;54120;53.504;49.426;2023-08-06T01:20:16;8.70;;;7.63;;
67191;SDS011;54120;53.504;49.426;2023-08-06T01:22:42;12.05;;;7.63;;
67191;SDS011;54120;53.504;49.426;2023-08-06T01:25:08;8.32;;;7.45;;
67191;SDS011;54120;53.504;49.426;2023-08-06T01:30:17;11.18;;;7.40;;
67191;SDS011;54120;53.504;49.426;2023-08-06T01:32:49;11.00;;;7.70;;
67191;SDS011;54120;53.504;49.426;2023-08-06T01:35:25;12.25;;;6.90;;
67191;SDS011;54120;53.504;49.426;2023-08-06T01:37:53;8.48;;;7.38;;
67191;SDS011;54120;53.504;49.426;2023-08-06T01:40:21;8.88;;;7.20;;
67191;SDS011;54120;53.504;49.426;2023-08-06T01:42:47;9.10;;;7.43;;
67191;SDS011;54120;53.504;49.426;2023-08-06T01:45:13;12.15;;;6.80;;
67191;SDS011;54120;53.504;49.426;2023-08-06T01:47:39;10.93;;;8.50;;
67191;SDS011;54120;53.504;49.426;2023-08-06T01:50:06;8.43;;;6.53;;
67191;SDS011;54120;53.504;49.426;2023-08-06T01:52:32;13.10;;;6.72;;
67191;SDS011;54120;53.504;49.426;2023-08-06T01:54:58;7.72;;;6.82;;
67191;SDS011;54120;53.504;49.426;2023-08-06T01:57:24;8.20;;;6.40;;
67191;SDS011;54120;53.504;49.426;2023-08-06T01:59:50;7.30;;;6.35;;
67191;SDS011;54120;53.504;49.426;2023-08-06T02:02:16;9.52;;;6.47;;
67191;SDS011;54120;53.504;49.426;2023-08-06T02:04:43;9.65;;;6.88;;
67191;SDS011;54120;53.504;49.426;2023-08-06T02:07:09;17.73;;;13.55;;
67191;SDS011;54120;53.504;49.426;2023-08-06T02:09:34;6.50;;;5.90;;
67191;SDS011;54120;53.504;49.426;2023-08-06T02:12:01;9.75;;;5.78;;
67191;SDS011;54120;53.504;49.426;2023-08-06T02:14:27;12.05;;;4.80;;
67191;SDS011;54120;53.504;49.426;2023-08-06T02:16:53;7.40;;;5.28;;
67191;SDS011;54120;53.504;49.426;2023-08-06T02:19:19;7.68;;;6.93;;
67191;SDS011;54120;53.504;49.426;2023-08-06T02:21:45;8.10;;;5.57;;
67191;SDS011;54120;53.504;49.426;2023-08-06T02:24:11;7.15;;;5.38;;
67191;SDS011;54120;53.504;49.426;2023-08-06T02:26:37;7.85;;;5.93;;
67191;SDS011;54120;53.504;49.426;2023-08-06T02:29:03;5.25;;;4.75;;
67191;SDS011;54120;53.504;49.426;2023-08-06T02:31:29;9.93;;;8.73;;
67191;SDS011;54120;53.504;49.426;2023-08-06T02:34:01;5.07;;;4.47;;
67191;SDS011;54120;53.504;49.426;2023-08-06T02:36:27;6.57;;;4.75;;
67191;SDS011;54120;53.504;49.426;2023-08-06T02:38:55;5.05;;;4.50;;
67191;SDS011;54120;53.504;49.426;2023-08-06T02:41:21;7.10;;;4.50;;
67191;SDS011;54120;53.504;49.426;2023-08-06T02:43:47;9.80;;;4.30;;
67191;SDS011;54120;53.504;49.426;2023-08-06T02:46:12;8.02;;;4.40;;
67191;SDS011;54120;53.504;49.426;2023-08-06T02:48:38;10.10;;;4.65;;
67191;SDS011;54120;53.504;49.426;2023-08-06T02:51:04;6.95;;;4.57;;
67191;SDS011;54120;53.504;49.426;2023-08-06T02:53:30;5.93;;;4.40;;
67191;SDS011;54120;53.504;49.426;2023-08-06T02:55:57;6.22;;;4.50;;
67191;SDS011;54120;53.504;49.426;2023-08-06T02:58:24;4.85;;;4.15;;
67191;SDS011;54120;53.504;49.426;2023-08-06T03:01:00;6.88;;;4.40;;
67191;SDS011;54120;53.504;49.426;2023-08-06T03:03:26;4.80;;;4.38;;
67191;SDS011;54120;53.504;49.426;2023-08-06T03:05:53;5.97;;;4.35;;
67191;SDS011;54120;53.504;49.426;2023-08-06T03:08:19;5.72;;;3.88;;
67191;SDS011;54120;53.504;49.426;2023-08-06T03:10:48;5.57;;;4.00;;
67191;SDS011;54120;53.504;49.426;2023-08-06T03:13:15;9.25;;;4.53;;
67191;SDS011;54120;53.504;49.426;2023-08-06T03:15:54;5.43;;;4.13;;
67191;SDS011;54120;53.504;49.426;2023-08-06T03:18:22;6.30;;;4.10;;
67191;SDS011;54120;53.504;49.426;2023-08-06T03:20:48;7.03;;;4.00;;
67191;SDS011;54120;53.504;49.426;2023-08-06T03:23:14;4.40;;;3.83;;
67191;SDS011;54120;53.504;49.426;2023-08-06T03:25:41;6.45;;;3.97;;
67191;SDS011;54120;53.504;49.426;2023-08-06T03:28:07;7.78;;;4.10;;
67191;SDS011;54120;53.504;49.426;2023-08-06T03:30:33;4.80;;;4.32;;
67191;SDS011;54120;53.504;49.426;2023-08-06T03:32:59;7.97;;;3.90;;
67191;SDS011;54120;53.504;49.426;2023-08-06T03:35:30;4.32;;;3.60;;
67191;SDS011;54120;53.504;49.426;2023-08-06T03:37:56;5.93;;;3.83;;
67191;SDS011;54120;53.504;49.426;2023-08-06T03:40:23;8.40;;;4.00;;
67191;SDS011;54120;53.504;49.426;2023-08-06T03:42:49;11.93;;;4.35;;
67191;SDS011;54120;53.504;49.426;2023-08-06T03:45:15;8.48;;;4.25;;
67191;SDS011;54120;53.504;49.426;2023-08-06T03:47:41;8.68;;;4.28;;
67191;SDS011;54120;53.504;49.426;2023-08-06T03:50:07;5.22;;;4.03;;
67191;SDS011;54120;53.504;49.426;2023-08-06T03:52:33;6.82;;;3.90;;
67191;SDS011;54120;53.504;49.426;2023-08-06T03:54:59;7.90;;;4.55;;
67191;SDS011;54120;53.504;49.426;2023-08-06T03:57:25;11.32;;;4.85;;
67191;SDS011;54120;53.504;49.426;2023-08-06T03:59:51;6.40;;;4.63;;
67191;SDS011;54120;53.504;49.426;2023-08-06T04:02:16;7.70;;;3.88;;
67191;SDS011;54120;53.504;49.426;2023-08-06T04:04:43;5.68;;;3.30;;
67191;SDS011;54120;53.504;49.426;2023-08-06T04:07:09;5.90;;;4.32;;
67191;SDS011;54120;53.504;49.426;2023-08-06T04:09:35;5.35;;;4.20;;
67191;SDS011;54120;53.504;49.426;2023-08-06T04:12:17;5.45;;;4.13;;
67191;SDS011;54120;53.504;49.426;2023-08-06T04:14:43;8.27;;;4.93;;
67191;SDS011;54120;53.504;49.426;2023-08-06T04:17:09;12.73;;;4.47;;
67191;SDS011;54120;53.504;49.426;2023-08-06T04:19:35;6.63;;;4.53;;
67191;SDS011;54120;53.504;49.426;2023-08-06T04:22:01;8.82;;;4.78;;
67191;SDS011;54120;53.504;49.426;2023-08-06T04:24:27;6.93;;;4.25;;
67191;SDS011;54120;53.504;49.426;2023-08-06T04:26:53;7.78;;;4.10;;
67191;SDS011;54120;53.504;49.426;2023-08-06T04:29:19;5.15;;;3.90;;
67191;SDS011;54120;53.504;49.426;2023-08-06T04:31:45;14.80;;;4.32;;
67191;SDS011;54120;53.504;49.426;2023-08-06T04:34:17;8.77;;;3.75;;
67191;SDS011;54120;53.504;49.426;2023-08-06T04:36:43;3.25;;;2.95;;
67191;SDS011;54120;53.504;49.426;2023-08-06T04:39:09;10.07;;;3.35;;
67191;SDS011;54120;53.504;49.426;2023-08-06T04:41:35;7.78;;;3.30;;
67191;SDS011;54120;53.504;49.426;2023-08-06T04:44:01;8.15;;;3.55;;
67191;SDS011;54120;53.504;49.426;2023-08-06T04:46:27;6.82;;;3.40;;
67191;SDS011;54120;53.504;49.426;2023-08-06T04:48:53;4.68;;;2.88;;
67191;SDS011;54120;53.504;49.426;2023-08-06T04:51:19;7.00;;;3.00;;
67191;SDS011;54120;53.504;49.426;2023-08-06T04:53:45;6.13;;;2.92;;
67191;SDS011;54120;53.504;49.426;2023-08-06T04:56:11;3.00;;;2.80;;
67191;SDS011;54120;53.504;49.426;2023-08-06T04:58:37;6.30;;;3.10;;
67191;SDS011;54120;53.504;49.426;2023-08-06T05:01:03;3.30;;;3.00;;
67191;SDS011;54120;53.504;49.426;2023-08-06T05:03:29;5.82;;;3.03;;
67191;SDS011;54120;53.504;49.426;2023-08-06T05:05:55;3.33;;;3.00;;
67191;SDS011;54120;53.504;49.426;2023-08-06T05:08:21;3.95;;;3.42;;
67191;SDS011;54120;53.504;49.426;2023-08-06T05:10:47;7.15;;;2.90;;
67191;SDS011;54120;53.504;49.426;2023-08-06T05:13:13;4.45;;;2.60;;
67191;SDS011;54120;53.504;49.426;2023-08-06T05:15:39;3.13;;;2.50;;
67191;SDS011;54120;53.504;49.426;2023-08-06T05:18:11;2.60;;;2.40;;
67191;SDS011;54120;53.504;49.426;2023-08-06T05:20:40;3.03;;;2.30;;
67191;SDS011;54120;53.504;49.426;2023-08-06T05:23:08;5.70;;;2.22;;
67191;SDS011;54120;53.504;49.426;2023-08-06T05:25:34;4.35;;;2.58;;
67191;SDS011;54120;53.504;49.426;2023-08-06T05:28:01;13.48;;;2.78;;
67191;SDS011;54120;53.504;49.426;2023-08-06T05:30:27;4.55;;;2.30;;
67191;SDS011;54120;53.504;49.426;2023-08-06T05:32:54;3.33;;;2.35;;
67191;SDS011;54120;53.504;49.426;2023-08-06T05:35:26;4.33;;;2.40;;
67191;SDS011;54120;53.504;49.426;2023-08-06T05:37:52;2.78;;;2.17;;
67191;SDS011;54120;53.504;49.426;2023-08-06T05:40:18;8.77;;;2.60;;
67191;SDS011;54120;53.504;49.426;2023-08-06T05:42:44;2.88;;;2.55;;
67191;SDS011;54120;53.504;49.426;2023-08-06T05:45:10;4.35;;;2.55;;
67191;SDS011;54120;53.504;49.426;2023-08-06T05:47:36;6.25;;;2.42;;
67191;SDS011;54120;53.504;49.426;2023-08-06T05:50:02;2.97;;;2.00;;
67191;SDS011;54120;53.504;49.426;2023-08-06T05:52:29;7.63;;;2.58;;
67191;SDS011;54120;53.504;49.426;2023-08-06T05:54:55;2.30;;;2.10;;
67191;SDS011;54120;53.504;49.426;2023-08-06T05:57:21;5.47;;;2.33;;
67191;SDS011;54120;53.504;49.426;2023-08-06T05:59:47;40.15;;;3.97;;
67191;SDS011;54120;53.504;49.426;2023-08-06T06:02:12;4.32;;;2.30;;
67191;SDS011;54120;53.504;49.426;2023-08-06T06:04:40;2.20;;;2.10;;
67191;SDS011;54120;53.504;49.426;2023-08-06T06:07:06;2.55;;;2.00;;
67191;SDS011;54120;53.504;49.426;2023-08-06T06:09:32;2.42;;;2.20;;
67191;SDS011;54120;53.504;49.426;2023-08-06T06:11:58;2.65;;;2.20;;
67191;SDS011;54120;53.504;49.426;2023-08-06T06:14:24;6.70;;;2.30;;
67191;SDS011;54120;53.504;49.426;2023-08-06T06:16:50;3.38;;;1.90;;
67191;SDS011;54120;53.504;49.426;2023-08-06T06:19:16;4.40;;;2.22;;
67191;SDS011;54120;53.504;49.426;2023-08-06T06:21:42;9.43;;;2.30;;
67191;SDS011;54120;53.504;49.426;2023-08-06T06:24:08;3.92;;;2.00;;
67191;SDS011;54120;53.504;49.426;2023-08-06T06:26:34;3.40;;;2.05;;
67191;SDS011;54120;53.504;49.426;2023-08-06T06:29:00;2.83;;;1.90;;
67191;SDS011;54120;53.504;49.426;2023-08-06T06:31:26;3.63;;;1.90;;
67191;SDS011;54120;53.504;49.426;2023-08-06T06:33:57;5.63;;;2.10;;
67191;SDS011;54120;53.504;49.426;2023-08-06T06:36:24;5.53;;;2.10;;
67191;SDS011;54120;53.504;49.426;2023-08-06T06:38:49;4.63;;;2.20;;
67191;SDS011;54120;53.504;49.426;2023-08-06T06:41:15;2.72;;;2.10;;
67191;SDS011;54120;53.504;49.426;2023-08-06T06:43:42;21.15;;;3.42;;
67191;SDS011;54120;53.504;49.426;2023-08-06T06:46:08;14.70;;;2.35;;
67191;SDS011;54120;53.504;49.426;2023-08-06T06:48:34;7.90;;;2.47;;
67191;SDS011;54120;53.504;49.426;2023-08-06T06:51:00;2.42;;;1.98;;
67191;SDS011;54120;53.504;49.426;2023-08-06T06:53:26;4.40;;;1.90;;
67191;SDS011;54120;53.504;49.426;2023-08-06T06:55:55;3.13;;;2.40;;
67191;SDS011;54120;53.504;49.426;2023-08-06T06:58:22;5.18;;;2.40;;
67191;SDS011;54120;53.504;49.426;2023-08-06T07:00:48;8.40;;;2.25;;
67191;SDS011;54120;53.504;49.426;2023-08-06T07:03:15;3.13;;;1.67;;
67191;SDS011;54120;53.504;49.426;2023-08-06T07:05:41;2.00;;;1.80;;
67191;SDS011;54120;53.504;49.426;2023-08-06T07:08:10;7.70;;;2.13;;
67191;SDS011;54120;53.504;49.426;2023-08-06T07:10:37;5.47;;;2.20;;
67191;SDS011;54120;53.504;49.426;2023-08-06T07:13:03;13.85;;;2.67;;
67191;SDS011;54120;53.504;49.426;2023-08-06T07:15:29;3.88;;;2.20;;
67191;SDS011;54120;53.504;49.426;2023-08-06T07:17:55;3.83;;;2.20;;
67191;SDS011;54120;53.504;49.426;2023-08-06T07:20:21;8.73;;;2.35;;
67191;SDS011;54120;53.504;49.426;2023-08-06T07:22:47;4.05;;;2.20;;
67191;SDS011;54120;53.504;49.426;2023-08-06T07:25:13;2.55;;;1.98;;
67191;SDS011;54120;53.504;49.426;2023-08-06T07:27:39;5.00;;;2.30;;
67191;SDS011;54120;53.504;49.426;2023-08-06T07:30:05;5.53;;;1.90;;
67191;SDS011;54120;53.504;49.426;2023-08-06T07:32:31;1.80;;;1.70;;
67191;SDS011;54120;53.504;49.426;2023-08-06T07:35:03;3.08;;;1.80;;
67191;SDS011;54120;53.504;49.426;2023-08-06T07:37:30;4.15;;;2.20;;
67191;SDS011;54120;53.504;49.426;2023-08-06T07:39:56;2.63;;;2.20;;
67191;SDS011;54120;53.504;49.426;2023-08-06T07:42:22;5.03;;;2.40;;
67191;SDS011;54120;53.504;49.426;2023-08-06T07:44:54;2.45;;;2.22;;
67191;SDS011;54120;53.504;49.426;2023-08-06T07:47:21;2.30;;;2.08;;
67191;SDS011;54120;53.504;49.426;2023-08-06T07:49:47;3.70;;;2.40;;
67191;SDS011;54120;53.504;49.426;2023-08-06T07:52:13;14.10;;;2.80;;
67191;SDS011;54120;53.504;49.426;2023-08-06T07:54:39;4.80;;;2.35;;
67191;SDS011;54120;53.504;49.426;2023-08-06T07:57:05;5.72;;;2.40;;
67191;SDS011;54120;53.504;49.426;2023-08-06T07:59:31;3.03;;;2.17;;
67191;SDS011;54120;53.504;49.426;2023-08-06T08:01:58;3.08;;;2.30;;
67191;SDS011;54120;53.504;49.426;2023-08-06T08:04:24;4.40;;;2.22;;
67191;SDS011;54120;53.504;49.426;2023-08-06T08:06:50;5.22;;;2.42;;
67191;SDS011;54120;53.504;49.426;2023-08-06T08:09:16;9.25;;;3.10;;
67191;SDS011;54120;53.504;49.426;2023-08-06T08:11:42;5.85;;;2.42;;
67191;SDS011;54120;53.504;49.426;2023-08-06T08:14:08;2.45;;;2.35;;
67191;SDS011;54120;53.504;49.426;2023-08-06T08:16:34;5.50;;;2.70;;
67191;SDS011;54120;53.504;49.426;2023-08-06T08:19:00;5.53;;;2.40;;
67191;SDS011;54120;53.504;49.426;2023-08-06T08:21:26;3.15;;;2.30;;
67191;SDS011;54120;53.504;49.426;2023-08-06T08:23:52;3.83;;;2.50;;
67191;SDS011;54120;53.504;49.426;2023-08-06T08:26:18;4.20;;;2.20;;
67191;SDS011;54120;53.504;49.426;2023-08-06T08:28:44;3.28;;;2.22;;
67191;SDS011;54120;53.504;49.426;2023-08-06T08:31:11;2.42;;;2.20;;
67191;SDS011;54120;53.504;49.426;2023-08-06T08:33:43;2.50;;;2.30;;
67191;SDS011;54120;53.504;49.426;2023-08-06T08:36:09;2.72;;;2.50;;
67191;SDS011;54120;53.504;49.426;2023-08-06T08:38:35;18.95;;;3.20;;
67191;SDS011;54120;53.504;49.426;2023-08-06T08:41:01;3.60;;;2.38;;
67191;SDS011;54120;53.504;49.426;2023-08-06T08:43:27;4.13;;;2.45;;
67191;SDS011;54120;53.504;49.426;2023-08-06T08:45:54;2.50;;;2.40;;
67191;SDS011;54120;53.504;49.426;2023-08-06T08:48:24;25.23;;;3.70;;
67191;SDS011;54120;53.504;49.426;2023-08-06T08:50:52;8.75;;;2.75;;
67191;SDS011;54120;53.504;49.426;2023-08-06T08:53:19;5.50;;;2.53;;
67191;SDS011;54120;53.504;49.426;2023-08-06T08:55:48;2.60;;;2.40;;
67191;SDS011;54120;53.504;49.426;2023-08-06T08:58:15;2.95;;;2.20;;
67191;SDS011;54120;53.504;49.426;2023-08-06T09:00:41;3.58;;;2.50;;
67191;SDS011;54120;53.504;49.426;2023-08-06T09:03:11;5.60;;;2.58;;
67191;SDS011;54120;53.504;49.426;2023-08-06T09:05:38;10.48;;;2.67;;
67191;SDS011;54120;53.504;49.426;2023-08-06T09:08:10;15.45;;;2.22;;
67191;SDS011;54120;53.504;49.426;2023-08-06T09:10:39;4.32;;;2.13;;
67191;SDS011;54120;53.504;49.426;2023-08-06T09:13:06;7.95;;;2.58;;
67191;SDS011;54120;53.504;49.426;2023-08-06T09:15:34;5.78;;;2.20;;
67191;SDS011;54120;53.504;49.426;2023-08-06T09:18:00;15.30;;;2.88;;
67191;SDS011;54120;53.504;49.426;2023-08-06T09:20:38;7.65;;;2.60;;
67191;SDS011;54120;53.504;49.426;2023-08-06T09:23:08;2.88;;;2.20;;
67191;SDS011;54120;53.504;49.426;2023-08-06T09:25:36;5.07;;;2.90;;
67191;SDS011;54120;53.504;49.426;2023-08-06T09:28:04;4.15;;;2.47;;
67191;SDS011;54120;53.504;49.426;2023-08-06T09:30:31;6.22;;;2.67;;
67191;SDS011;54120;53.504;49.426;2023-08-06T09:32:58;3.10;;;2.30;;
67191;SDS011;54120;53.504;49.426;2023-08-06T09:35:31;11.50;;;2.40;;
67191;SDS011;54120;53.504;49.426;2023-08-06T09:38:07;3.97;;;2.60;;
67191;SDS011;54120;53.504;49.426;2023-08-06T09:40:36;7.00;;;2.78;;
67191;SDS011;54120;53.504;49.426;2023-08-06T09:43:02;3.72;;;2.08;;
67191;SDS011;54120;53.504;49.426;2023-08-06T09:45:35;11.20;;;3.03;;
67191;SDS011;54120;53.504;49.426;2023-08-06T09:48:03;30.98;;;5.03;;
67191;SDS011;54120;53.504;49.426;2023-08-06T09:50:31;2.63;;;2.20;;
67191;SDS011;54120;53.504;49.426;2023-08-06T09:52:59;3.42;;;2.50;;
67191;SDS011;54120;53.504;49.426;2023-08-06T09:55:26;6.00;;;2.40;;
67191;SDS011;54120;53.504;49.426;2023-08-06T09:57:55;5.45;;;2.38;;
67191;SDS011;54120;53.504;49.426;2023-08-06T10:00:22;9.95;;;2.80;;
67191;SDS011;54120;53.504;49.426;2023-08-06T10:02:48;4.40;;;2.25;;
67191;SDS011;54120;53.504;49.426;2023-08-06T10:05:16;5.50;;;2.30;;
67191;SDS011;54120;53.504;49.426;2023-08-06T10:07:44;7.88;;;3.15;;
67191;SDS011;54120;53.504;49.426;2023-08-06T10:10:10;5.75;;;2.67;;
67191;SDS011;54120;53.504;49.426;2023-08-06T10:12:40;27.25;;;3.42;;
67191;SDS011;54120;53.504;49.426;2023-08-06T10:15:16;8.13;;;2.47;;
67191;SDS011;54120;53.504;49.426;2023-08-06T10:17:47;5.97;;;2.60;;
67191;SDS011;54120;53.504;49.426;2023-08-06T10:20:14;9.02;;;2.35;;
67191;SDS011;54120;53.504;49.426;2023-08-06T10:22:44;5.43;;;2.47;;
67191;SDS011;54120;53.504;49.426;2023-08-06T10:25:10;40.33;;;3.90;;
67191;SDS011;54120;53.504;49.426;2023-08-06T10:27:53;18.23;;;2.80;;
67191;SDS011;54120;53.504;49.426;2023-08-06T10:30:27;11.43;;;2.85;;
67191;SDS011;54120;53.504;49.426;2023-08-06T10:32:55;8.80;;;2.60;;
67191;SDS011;54120;53.504;49.426;2023-08-06T10:35:44;2.65;;;2.20;;
67191;SDS011;54120;53.504;49.426;2023-08-06T10:38:16;4.65;;;2.30;;
67191;SDS011;54120;53.504;49.426;2023-08-06T10:43:25;6.85;;;2.60;;
67191;SDS011;54120;53.504;49.426;2023-08-06T10:46:04;5.05;;;2.17;;
67191;SDS011;54120;53.504;49.426;2023-08-06T10:48:41;12.63;;;2.70;;
67191;SDS011;54120;53.504;49.426;2023-08-06T10:51:11;27.48;;;3.05;;
67191;SDS011;54120;53.504;49.426;2023-08-06T10:53:41;8.68;;;2.80;;
67191;SDS011;54120;53.504;49.426;2023-08-06T10:56:15;36.72;;;3.90;;
67191;SDS011;54120;53.504;49.426;2023-08-06T10:58:42;5.88;;;2.55;;
67191;SDS011;54120;53.504;49.426;2023-08-06T11:01:09;3.20;;;2.30;;
67191;SDS011;54120;53.504;49.426;2023-08-06T11:03:36;8.88;;;2.30;;
67191;SDS011;54120;53.504;49.426;2023-08-06T11:06:03;3.53;;;2.47;;
67191;SDS011;54120;53.504;49.426;2023-08-06T11:08:36;33.47;;;3.95;;
67191;SDS011;54120;53.504;49.426;2023-08-06T11:13:39;6.35;;;2.10;;
67191;SDS011;54120;53.504;49.426;2023-08-06T11:16:05;6.53;;;2.30;;
67191;SDS011;54120;53.504;49.426;2023-08-06T11:18:32;13.13;;;2.72;;
67191;SDS011;54120;53.504;49.426;2023-08-06T11:20:59;7.00;;;2.60;;
67191;SDS011;54120;53.504;49.426;2023-08-06T11:23:26;5.50;;;2.22;;
67191;SDS011;54120;53.504;49.426;2023-08-06T11:25:56;2.65;;;1.90;;
67191;SDS011;54120;53.504;49.426;2023-08-06T11:28:22;3.40;;;2.00;;
67191;SDS011;54120;53.504;49.426;2023-08-06T11:30:49;3.10;;;2.40;;
67191;SDS011;54120;53.504;49.426;2023-08-06T11:33:22;2.15;;;1.95;;
67191;SDS011;54120;53.504;49.426;2023-08-06T11:35:51;8.40;;;2.20;;
67191;SDS011;54120;53.504;49.426;2023-08-06T11:38:18;3.00;;;2.10;;
67191;SDS011;54120;53.504;49.426;2023-08-06T11:40:44;4.22;;;2.10;;
67191;SDS011;54120;53.504;49.426;2023-08-06T11:43:14;3.10;;;1.98;;
67191;SDS011;54120;53.504;49.426;2023-08-06T11:45:40;2.63;;;2.10;;
67191;SDS011;54120;53.504;49.426;2023-08-06T11:48:06;8.20;;;2.08;;
67191;SDS011;54120;53.504;49.426;2023-08-06T11:50:36;4.78;;;2.05;;
67191;SDS011;54120;53.504;49.426;2023-08-06T11:53:06;3.45;;;1.92;;
67191;SDS011;54120;53.504;49.426;2023-08-06T11:55:32;6.03;;;3.17;;
67191;SDS011;54120;53.504;49.426;2023-08-06T11:58:02;6.10;;;2.53;;
67191;SDS011;54120;53.504;49.426;2023-08-06T12:00:32;4.37;;;1.97;;
67191;SDS011;54120;53.504;49.426;2023-08-06T12:02:58;4.47;;;2.00;;
67191;SDS011;54120;53.504;49.426;2023-08-06T12:05:29;2.55;;;2.10;;
67191;SDS011;54120;53.504;49.426;2023-08-06T12:07:57;5.20;;;1.73;;
67191;SDS011;54120;53.504;49.426;2023-08-06T12:10:24;1.95;;;1.67;;
67191;SDS011;54120;53.504;49.426;2023-08-06T12:12:51;1.77;;;1.52;;
67191;SDS011;54120;53.504;49.426;2023-08-06T12:15:18;5.70;;;1.67;;
67191;SDS011;54120;53.504;49.426;2023-08-06T12:17:44;4.35;;;1.77;;
67191;SDS011;54120;53.504;49.426;2023-08-06T12:20:10;4.13;;;1.50;;
67191;SDS011;54120;53.504;49.426;2023-08-06T12:22:37;7.95;;;1.73;;
67191;SDS011;54120;53.504;49.426;2023-08-06T12:25:08;18.58;;;2.45;;
67191;SDS011;54120;53.504;49.426;2023-08-06T12:27:37;4.80;;;1.63;;
67191;SDS011;54120;53.504;49.426;2023-08-06T12:30:04;2.47;;;1.67;;
67191;SDS011;54120;53.504;49.426;2023-08-06T12:32:37;3.33;;;1.60;;
67191;SDS011;54120;53.504;49.426;2023-08-06T12:35:04;4.35;;;2.10;;
67191;SDS011;54120;53.504;49.426;2023-08-06T12:37:33;20.23;;;2.80;;
67191;SDS011;54120;53.504;49.426;2023-08-06T12:39:59;49.05;;;3.78;;
67191;SDS011;54120;53.504;49.426;2023-08-06T12:42:25;2.92;;;1.40;;
67191;SDS011;54120;53.504;49.426;2023-08-06T12:44:51;10.60;;;2.00;;
67191;SDS011;54120;53.504;49.426;2023-08-06T12:47:17;8.60;;;2.00;;
67191;SDS011;54120;53.504;49.426;2023-08-06T12:49:44;4.43;;;1.70;;
67191;SDS011;54120;53.504;49.426;2023-08-06T12:52:10;37.70;;;3.58;;
67191;SDS011;54120;53.504;49.426;2023-08-06T12:54:38;9.40;;;1.60;;
67191;SDS011;54120;53.504;49.426;2023-08-06T12:57:04;6.63;;;1.60;;
67191;SDS011;54120;53.504;49.426;2023-08-06T12:59:31;5.55;;;1.65;;
67191;SDS011;54120;53.504;49.426;2023-08-06T13:01:58;46.67;;;4.00;;
67191;SDS011;54120;53.504;49.426;2023-08-06T13:04:25;5.20;;;2.28;;
67191;SDS011;54120;53.504;49.426;2023-08-06T13:06:51;38.17;;;3.30;;
67191;SDS011;54120;53.504;49.426;2023-08-06T13:09:17;9.52;;;1.63;;
67191;SDS011;54120;53.504;49.426;2023-08-06T13:11:43;5.55;;;1.83;;
67191;SDS011;54120;53.504;49.426;2023-08-06T13:14:12;48.65;;;3.60;;
67191;SDS011;54120;53.504;49.426;2023-08-06T13:16:40;4.28;;;1.73;;
67191;SDS011;54120;53.504;49.426;2023-08-06T13:19:07;8.82;;;2.00;;
67191;SDS011;54120;53.504;49.426;2023-08-06T13:21:34;3.65;;;1.60;;
67191;SDS011;54120;53.504;49.426;2023-08-06T13:24:21;7.97;;;1.73;;
67191;SDS011;54120;53.504;49.426;2023-08-06T13:26:47;11.68;;;2.50;;
67191;SDS011;54120;53.504;49.426;2023-08-06T13:29:13;10.32;;;2.10;;
67191;SDS011;54120;53.504;49.426;2023-08-06T13:31:39;9.18;;;1.83;;
67191;SDS011;54120;53.504;49.426;2023-08-06T13:34:05;6.25;;;1.88;;
67191;SDS011;54120;53.504;49.426;2023-08-06T13:36:31;4.65;;;1.70;;
67191;SDS011;54120;53.504;49.426;2023-08-06T13:38:57;4.65;;;1.73;;
67191;SDS011;54120;53.504;49.426;2023-08-06T13:41:23;8.10;;;2.10;;
67191;SDS011;54120;53.504;49.426;2023-08-06T13:43:49;11.32;;;2.30;;
67191;SDS011;54120;53.504;49.426;2023-08-06T13:46:17;22.58;;;3.53;;
67191;SDS011;54120;53.504;49.426;2023-08-06T13:48:46;5.93;;;1.88;;
67191;SDS011;54120;53.504;49.426;2023-08-06T13:51:14;6.22;;;1.95;;
67191;SDS011;54120;53.504;49.426;2023-08-06T13:53:40;5.68;;;1.55;;
67191;SDS011;54120;53.504;49.426;2023-08-06T13:56:07;7.07;;;2.20;;
67191;SDS011;54120;53.504;49.426;2023-08-06T13:58:40;3.05;;;1.40;;
67191;SDS011;54120;53.504;49.426;2023-08-06T14:01:06;8.88;;;1.92;;
67191;SDS011;54120;53.504;49.426;2023-08-06T14:03:35;30.58;;;2.97;;
67191;SDS011;54120;53.504;49.426;2023-08-06T14:06:01;2.92;;;1.52;;
67191;SDS011;54120;53.504;49.426;2023-08-06T14:08:27;12.43;;;2.00;;
67191;SDS011;54120;53.504;49.426;2023-08-06T14:10:53;14.40;;;3.30;;
67191;SDS011;54120;53.504;49.426;2023-08-06T14:13:19;5.07;;;1.90;;
67191;SDS011;54120;53.504;49.426;2023-08-06T14:15:46;12.75;;;2.58;;
67191;SDS011;54120;53.504;49.426;2023-08-06T14:18:13;4.82;;;1.80;;
67191;SDS011;54120;53.504;49.426;2023-08-06T14:20:40;4.07;;;1.77;;
67191;SDS011;54120;53.504;49.426;2023-08-06T14:23:06;6.65;;;1.90;;
67191;SDS011;54120;53.504;49.426;2023-08-06T14:25:32;5.55;;;1.50;;
67191;SDS011;54120;53.504;49.426;2023-08-06T14:27:58;5.57;;;1.60;;
67191;SDS011;54120;53.504;49.426;2023-08-06T14:30:25;12.88;;;2.20;;
67191;SDS011;54120;53.504;49.426;2023-08-06T14:32:51;7.70;;;2.20;;
67191;SDS011;54120;53.504;49.426;2023-08-06T14:35:17;6.43;;;2.03;;
67191;SDS011;54120;53.504;49.426;2023-08-06T14:37:43;6.10;;;1.90;;
67191;SDS011;54120;53.504;49.426;2023-08-06T14:40:11;20.55;;;2.38;;
67191;SDS011;54120;53.504;49.426;2023-08-06T14:42:37;9.88;;;2.22;;
67191;SDS011;54120;53.504;49.426;2023-08-06T14:45:03;14.63;;;1.80;;
67191;SDS011;54120;53.504;49.426;2023-08-06T14:47:30;6.68;;;1.77;;